createdAt,value
2023-05-12T00:01:49.390Z,16.70
2023-05-12T00:04:16.147Z,16.70
2023-05-12T00:11:37.057Z,16.60
2023-05-12T00:14:04.530Z,16.50
2023-05-12T00:16:31.195Z,16.70
2023-05-12T00:18:57.914Z,16.60
2023-05-12T00:21:24.582Z,16.40
2023-05-12T00:26:18.066Z,16.30
2023-05-12T00:28:44.761Z,16.30
2023-05-12T00:31:12.073Z,16.40
2023-05-12T00:33:38.655Z,15.90
2023-05-12T00:36:06.213Z,16.10
2023-05-12T00:38:33.625Z,16.10
2023-05-12T00:41:01.042Z,16.00
2023-05-12T00:43:27.729Z,15.90
2023-05-12T00:45:54.403Z,16.10
2023-05-12T00:48:21.743Z,15.80
2023-05-12T00:50:48.577Z,15.80
2023-05-12T00:53:15.266Z,15.80
2023-05-12T00:55:42.148Z,15.80
2023-05-12T00:58:08.810Z,15.50
2023-05-12T01:00:35.413Z,15.70
2023-05-12T01:03:03.019Z,15.70
2023-05-12T01:05:38.872Z,15.70
2023-05-12T01:08:06.268Z,15.80
2023-05-12T01:10:33.234Z,15.50
2023-05-12T01:12:59.822Z,15.80
2023-05-12T01:15:26.526Z,15.80
2023-05-12T01:17:57.699Z,15.70
2023-05-12T01:20:26.719Z,15.70
2023-05-12T01:22:54.926Z,15.70
2023-05-12T01:25:23.794Z,15.70
2023-05-12T01:27:53.031Z,15.70
2023-05-12T01:30:21.266Z,15.80
2023-05-12T01:32:48.204Z,15.50
2023-05-12T01:35:14.860Z,15.60
2023-05-12T01:40:09.131Z,15.60
2023-05-12T01:42:37.950Z,15.60
2023-05-12T01:45:06.197Z,15.50
2023-05-12T01:47:32.939Z,15.50
2023-05-12T01:49:59.526Z,15.60
2023-05-12T01:54:54.040Z,15.30
2023-05-12T01:59:47.614Z,15.20
2023-05-12T02:02:14.883Z,15.20
2023-05-12T02:04:42.487Z,15.20
2023-05-12T02:07:09.741Z,15.20
2023-05-12T02:09:36.354Z,15.20
2023-05-12T02:12:03.706Z,15.10
2023-05-12T02:14:30.268Z,15.10
2023-05-12T02:16:56.877Z,15.00
2023-05-12T02:19:24.165Z,15.00
2023-05-12T02:24:17.596Z,14.80
2023-05-12T02:29:11.287Z,14.80
2023-05-12T02:31:38.352Z,14.80
2023-05-12T02:36:34.159Z,14.70
2023-05-12T02:39:00.786Z,14.70
2023-05-12T02:41:27.491Z,14.60
2023-05-12T02:43:54.209Z,14.70
2023-05-12T02:46:20.772Z,14.50
2023-05-12T02:48:47.371Z,14.50
2023-05-12T02:51:13.975Z,14.40
2023-05-12T02:53:41.207Z,14.40
2023-05-12T02:56:07.881Z,14.30
2023-05-12T02:58:34.755Z,14.30
2023-05-12T03:01:10.196Z,14.30
2023-05-12T03:03:38.292Z,14.30
2023-05-12T03:06:05.457Z,14.30
2023-05-12T03:08:32.248Z,14.20
2023-05-12T03:10:59.647Z,14.20
2023-05-12T03:13:26.351Z,14.10
2023-05-12T03:18:20.510Z,14.00
2023-05-12T03:20:47.364Z,14.00
2023-05-12T03:23:13.939Z,13.90
2023-05-12T03:25:40.556Z,13.90
2023-05-12T03:28:07.766Z,13.90
2023-05-12T03:30:34.387Z,13.90
2023-05-12T03:33:00.974Z,13.90
2023-05-12T03:35:27.648Z,13.80
2023-05-12T03:37:54.262Z,13.80
2023-05-12T03:42:48.382Z,13.80
2023-05-12T03:45:15.787Z,13.90
2023-05-12T03:47:42.564Z,13.90
2023-05-12T03:50:10.306Z,13.70
2023-05-12T03:52:37.735Z,13.70
2023-05-12T03:55:05.641Z,13.70
2023-05-12T03:57:32.313Z,13.70
2023-05-12T03:59:58.933Z,13.70
2023-05-12T04:02:26.719Z,13.70
2023-05-12T04:04:53.507Z,13.70
2023-05-12T04:07:20.188Z,13.80
2023-05-12T04:09:46.853Z,13.80
2023-05-12T04:12:13.503Z,13.80
2023-05-12T04:14:43.265Z,13.80
2023-05-12T04:17:10.294Z,14.10
2023-05-12T04:19:38.481Z,14.10
2023-05-12T04:22:05.393Z,13.90
2023-05-12T04:24:32.100Z,14.00
2023-05-12T04:26:58.706Z,14.10
2023-05-12T04:31:54.493Z,14.20
2023-05-12T04:34:21.173Z,14.20
2023-05-12T04:36:48.457Z,14.40
2023-05-12T04:39:15.276Z,14.20
2023-05-12T04:41:41.891Z,14.30
2023-05-12T04:44:08.706Z,14.30
2023-05-12T04:46:35.414Z,14.30
2023-05-12T04:49:02.089Z,14.40
2023-05-12T04:51:28.721Z,14.40
2023-05-12T04:53:56.073Z,14.50
2023-05-12T04:56:22.867Z,14.60
2023-05-12T04:58:49.571Z,14.70
2023-05-12T05:01:16.266Z,14.80
2023-05-12T05:03:43.103Z,14.90
2023-05-12T05:06:09.830Z,15.50
2023-05-12T05:08:36.423Z,15.00
2023-05-12T05:11:03.691Z,15.10
2023-05-12T05:13:30.538Z,15.20
2023-05-12T05:15:57.279Z,15.30
2023-05-12T05:18:24.550Z,15.50
2023-05-12T05:20:57.922Z,15.50
2023-05-12T05:25:52.181Z,16.10
2023-05-12T05:28:21.725Z,16.10
2023-05-12T05:30:48.329Z,16.30
2023-05-12T05:33:15.070Z,16.40
2023-05-12T05:35:41.790Z,16.50
2023-05-12T05:40:48.845Z,16.60
2023-05-12T05:43:20.078Z,16.70
2023-05-12T05:45:48.606Z,16.70
2023-05-12T05:48:15.572Z,16.90
2023-05-12T05:50:42.284Z,16.90
2023-05-12T05:53:08.935Z,17.00
2023-05-12T05:55:35.618Z,17.20
2023-05-12T05:58:02.194Z,17.40
2023-05-12T06:00:29.523Z,17.40
2023-05-12T06:02:56.338Z,17.60
2023-05-12T06:05:23.237Z,17.70
2023-05-12T06:07:49.945Z,17.90
2023-05-12T06:10:16.842Z,18.00
2023-05-12T06:12:43.807Z,18.20
2023-05-12T06:15:11.085Z,18.10
2023-05-12T06:17:38.701Z,18.20
2023-05-12T06:20:06.659Z,18.20
2023-05-12T06:22:33.989Z,18.20
2023-05-12T06:25:01.162Z,18.30
2023-05-12T06:27:27.849Z,18.60
2023-05-12T06:29:54.564Z,18.90
2023-05-12T06:32:21.171Z,18.70
2023-05-12T06:34:48.492Z,18.80
2023-05-12T06:37:15.168Z,18.90
2023-05-12T06:39:41.791Z,19.10
2023-05-12T06:42:08.390Z,19.10
2023-05-12T06:44:35.019Z,19.20
2023-05-12T06:47:01.594Z,19.20
2023-05-12T06:49:30.481Z,19.30
2023-05-12T06:51:57.808Z,19.40
2023-05-12T06:54:24.345Z,19.40
2023-05-12T06:56:50.902Z,19.30
2023-05-12T06:59:18.499Z,19.40
2023-05-12T07:01:46.367Z,19.40
2023-05-12T07:04:13.505Z,19.50
2023-05-12T07:06:40.080Z,19.40
2023-05-12T07:09:10.634Z,19.50
2023-05-12T07:11:37.269Z,19.50
2023-05-12T07:14:03.961Z,19.40
2023-05-12T07:16:31.790Z,19.40
2023-05-12T07:18:58.462Z,19.60
2023-05-12T07:21:25.143Z,19.70
2023-05-12T07:23:51.727Z,19.80
2023-05-12T07:26:18.937Z,19.80
2023-05-12T07:28:45.495Z,19.70
2023-05-12T07:31:12.082Z,19.70
2023-05-12T07:33:38.725Z,19.80
2023-05-12T07:36:05.779Z,19.90
2023-05-12T07:38:32.335Z,20.20
2023-05-12T07:40:59.339Z,20.10
2023-05-12T07:43:26.659Z,20.30
2023-05-12T07:45:54.888Z,20.50
2023-05-12T07:48:21.663Z,20.50
2023-05-12T07:50:48.355Z,20.50
2023-05-12T07:53:14.958Z,20.40
2023-05-12T07:55:43.400Z,20.30
2023-05-12T07:58:10.907Z,20.30
2023-05-12T08:00:38.157Z,20.40
2023-05-12T08:03:05.029Z,20.30
2023-05-12T08:05:32.324Z,20.60
2023-05-12T08:07:58.911Z,20.70
2023-05-12T08:10:28.904Z,20.90
2023-05-12T08:12:55.800Z,21.00
2023-05-12T08:15:22.676Z,21.10
2023-05-12T08:17:50.216Z,21.40
2023-05-12T08:20:16.947Z,21.40
2023-05-12T08:22:43.959Z,21.60
2023-05-12T08:25:17.527Z,21.50
2023-05-12T08:27:44.796Z,21.60
2023-05-12T08:30:12.058Z,21.70
2023-05-12T08:32:38.780Z,21.70
2023-05-12T08:35:06.877Z,21.80
2023-05-12T08:37:34.739Z,21.80
2023-05-12T08:40:03.349Z,21.80
2023-05-12T08:42:36.055Z,22.70
2023-05-12T08:45:03.733Z,21.60
2023-05-12T08:47:32.564Z,21.70
2023-05-12T08:50:01.255Z,21.80
2023-05-12T08:52:29.976Z,21.90
2023-05-12T08:54:56.780Z,21.90
2023-05-12T08:57:24.148Z,21.90
2023-05-12T08:59:53.997Z,21.90
2023-05-12T09:02:22.507Z,22.00
2023-05-12T09:04:49.256Z,22.00
2023-05-12T09:07:16.183Z,22.10
2023-05-12T09:09:46.621Z,22.20
2023-05-12T09:12:18.038Z,22.30
2023-05-12T09:14:46.502Z,22.30
2023-05-12T09:17:13.587Z,22.20
2023-05-12T09:19:40.234Z,22.20
2023-05-12T09:22:08.807Z,22.30
2023-05-12T09:24:36.690Z,22.30
2023-05-12T09:27:04.468Z,22.40
2023-05-12T09:29:34.468Z,22.50
2023-05-12T09:32:06.733Z,22.40
2023-05-12T09:34:34.982Z,22.40
2023-05-12T09:37:04.376Z,22.20
2023-05-12T09:39:31.198Z,22.30
2023-05-12T09:41:57.836Z,22.30
2023-05-12T09:44:26.114Z,22.20
2023-05-12T09:46:52.962Z,22.20
2023-05-12T09:49:19.867Z,22.50
2023-05-12T09:51:46.796Z,22.30
2023-05-12T09:54:23.781Z,22.50
2023-05-12T09:56:51.509Z,22.60
2023-05-12T09:59:20.490Z,22.80
2023-05-12T10:01:48.470Z,22.50
2023-05-12T10:04:15.455Z,22.60
2023-05-12T10:06:42.473Z,22.60
2023-05-12T10:09:15.850Z,22.80
2023-05-12T10:11:43.818Z,22.70
2023-05-12T10:14:10.934Z,22.80
2023-05-12T10:16:40.424Z,22.90
2023-05-12T10:19:10.144Z,22.90
2023-05-12T10:21:37.736Z,22.80
2023-05-12T10:24:04.697Z,23.20
2023-05-12T10:26:32.313Z,22.90
2023-05-12T10:28:59.561Z,23.10
2023-05-12T10:31:27.150Z,23.10
2023-05-12T10:33:57.884Z,23.20
2023-05-12T10:36:25.594Z,23.20
2023-05-12T10:38:52.218Z,23.30
2023-05-12T10:41:30.247Z,23.50
2023-05-12T10:44:01.130Z,23.60
2023-05-12T10:46:27.991Z,23.80
2023-05-12T10:48:56.149Z,23.90
2023-05-12T10:51:25.771Z,24.00
2023-05-12T10:53:57.009Z,23.90
2023-05-12T10:56:25.805Z,23.70
2023-05-12T10:59:11.244Z,24.00
2023-05-12T11:01:39.901Z,23.80
2023-05-12T11:04:15.153Z,23.90
2023-05-12T11:06:44.835Z,24.20
2023-05-12T11:09:13.253Z,24.20
2023-05-12T11:11:40.560Z,24.30
2023-05-12T11:14:07.947Z,24.40
2023-05-12T11:16:40.767Z,24.40
2023-05-12T11:19:07.449Z,24.60
2023-05-12T11:21:34.541Z,24.40
2023-05-12T11:24:02.655Z,24.40
2023-05-12T11:26:30.396Z,24.50
2023-05-12T11:28:57.690Z,24.50
2023-05-12T11:31:24.725Z,24.70
2023-05-12T11:36:36.768Z,24.50
2023-05-12T11:39:05.380Z,24.80
2023-05-12T11:41:33.029Z,24.70
2023-05-12T11:43:59.619Z,24.80
2023-05-12T11:46:27.225Z,25.10
2023-05-12T11:48:57.822Z,25.50
2023-05-12T11:51:25.087Z,25.70
2023-05-12T11:53:52.703Z,25.70
2023-05-12T11:56:19.926Z,25.60
2023-05-12T11:58:54.402Z,25.50
2023-05-12T12:01:21.075Z,25.50
2023-05-12T12:03:49.338Z,25.60
2023-05-12T12:06:16.298Z,25.40
2023-05-12T12:08:50.541Z,25.30
2023-05-12T12:11:18.217Z,25.40
2023-05-12T12:13:48.345Z,25.60
2023-05-12T12:16:15.776Z,26.00
2023-05-12T12:18:42.548Z,26.30
2023-05-12T12:21:09.159Z,26.10
2023-05-12T12:23:47.697Z,26.40
2023-05-12T12:26:17.024Z,26.10
2023-05-12T12:28:45.314Z,26.30
2023-05-12T12:31:12.290Z,26.10
2023-05-12T12:33:39.665Z,26.20
2023-05-12T12:36:06.636Z,26.30
2023-05-12T12:38:33.186Z,26.50
2023-05-12T12:40:59.966Z,26.50
2023-05-12T12:43:26.651Z,26.40
2023-05-12T12:45:54.088Z,26.40
2023-05-12T12:48:20.704Z,26.40
2023-05-12T12:50:47.984Z,26.30
2023-05-12T12:53:14.557Z,25.30
2023-05-12T12:55:41.307Z,25.00
2023-05-12T12:58:08.385Z,25.60
2023-05-12T13:00:35.677Z,26.20
2023-05-12T13:03:02.405Z,26.50
2023-05-12T13:05:29.034Z,26.90
2023-05-12T13:07:56.236Z,27.30
2023-05-12T13:10:22.818Z,27.40
2023-05-12T13:12:49.509Z,27.50
2023-05-12T13:15:19.393Z,27.60
2023-05-12T13:17:46.369Z,27.60
2023-05-12T13:20:13.589Z,28.10
2023-05-12T13:22:40.273Z,27.90
2023-05-12T13:25:08.275Z,28.10
2023-05-12T13:27:34.959Z,28.00
2023-05-12T13:30:03.880Z,27.70
2023-05-12T13:32:30.661Z,27.80
2023-05-12T13:34:57.253Z,27.90
2023-05-12T13:37:23.961Z,27.50
2023-05-12T13:39:50.731Z,27.40
2023-05-12T13:42:18.007Z,28.00
2023-05-12T13:44:44.810Z,27.80
2023-05-12T13:47:11.353Z,27.90
2023-05-12T13:49:38.371Z,28.00
2023-05-12T13:52:05.708Z,28.10
2023-05-12T13:54:32.531Z,28.20
2023-05-12T13:56:59.241Z,28.60
2023-05-12T13:59:26.807Z,28.90
2023-05-12T14:01:54.217Z,28.80
2023-05-12T14:04:20.776Z,29.70
2023-05-12T14:06:47.601Z,32.20
2023-05-12T14:09:14.219Z,35.30
2023-05-12T14:11:40.798Z,36.60
2023-05-12T14:14:07.482Z,37.50
2023-05-12T14:16:34.775Z,38.00
2023-05-12T14:19:01.415Z,38.20
2023-05-12T14:21:28.271Z,39.40
2023-05-12T14:23:54.858Z,40.60
2023-05-12T14:26:21.807Z,41.10
2023-05-12T14:28:48.586Z,40.10
2023-05-12T14:31:15.493Z,40.00
2023-05-12T14:33:42.831Z,39.90
2023-05-12T14:36:10.049Z,41.00
2023-05-12T14:38:37.194Z,41.70
2023-05-12T14:41:03.782Z,41.40
2023-05-12T14:43:30.397Z,40.60
2023-05-12T14:45:57.075Z,40.80
2023-05-12T14:48:25.384Z,41.30
2023-05-12T14:50:52.892Z,40.30
2023-05-12T14:53:19.523Z,40.50
2023-05-12T14:55:46.733Z,40.30
2023-05-12T14:58:13.698Z,40.80
2023-05-12T15:00:40.368Z,40.60
2023-05-12T15:03:07.226Z,40.80
2023-05-12T15:05:52.713Z,41.10
2023-05-12T15:08:20.989Z,40.20
2023-05-12T15:10:47.862Z,39.90
2023-05-12T15:13:17.023Z,40.30
2023-05-12T15:15:44.027Z,40.40
2023-05-12T15:18:10.729Z,40.60
2023-05-12T15:20:37.822Z,40.50
2023-05-12T15:23:04.549Z,40.30
2023-05-12T15:25:32.171Z,40.30
2023-05-12T15:27:58.756Z,39.90
2023-05-12T15:30:25.413Z,39.90
2023-05-12T15:32:52.074Z,39.90
2023-05-12T15:35:18.737Z,39.80
2023-05-12T15:37:45.384Z,36.70
2023-05-12T15:40:13.171Z,36.20
2023-05-12T15:42:41.194Z,35.60
2023-05-12T15:45:08.785Z,35.00
2023-05-12T15:47:35.757Z,35.20
2023-05-12T15:50:03.005Z,34.90
2023-05-12T15:52:29.807Z,34.50
2023-05-12T15:54:56.541Z,33.10
2023-05-12T15:57:23.103Z,30.90
2023-05-12T15:59:51.977Z,29.70
2023-05-12T16:02:18.729Z,29.60
2023-05-12T16:04:45.402Z,30.30
2023-05-12T16:07:11.984Z,31.20
2023-05-12T16:09:38.536Z,32.50
2023-05-12T16:12:07.374Z,34.20
2023-05-12T16:14:35.282Z,34.80
2023-05-12T16:17:05.321Z,34.70
2023-05-12T16:19:31.945Z,34.70
2023-05-12T16:21:59.312Z,34.80
2023-05-12T16:24:27.891Z,34.60
2023-05-12T16:26:54.700Z,34.60
2023-05-12T16:29:21.710Z,33.70
2023-05-12T16:31:48.497Z,32.40
2023-05-12T16:34:16.625Z,30.70
2023-05-12T16:36:43.265Z,29.30
2023-05-12T16:39:09.893Z,28.10
2023-05-12T16:41:36.768Z,27.10
2023-05-12T16:44:03.494Z,26.50
2023-05-12T16:46:31.954Z,25.70
2023-05-12T16:48:59.296Z,25.00
2023-05-12T16:51:29.674Z,24.30
2023-05-12T16:53:56.642Z,24.00
2023-05-12T16:56:23.281Z,23.80
2023-05-12T16:58:51.004Z,23.70
2023-05-12T17:01:17.709Z,23.60
2023-05-12T17:03:44.801Z,23.60
2023-05-12T17:06:12.424Z,23.50
2023-05-12T17:08:40.112Z,23.40
2023-05-12T17:11:09.062Z,23.10
2023-05-12T17:13:36.759Z,22.90
2023-05-12T17:16:03.992Z,22.80
2023-05-12T17:18:30.835Z,22.50
2023-05-12T17:20:58.217Z,22.60
2023-05-12T17:23:24.868Z,22.60
2023-05-12T17:25:52.742Z,22.50
2023-05-12T17:28:20.399Z,22.40
2023-05-12T17:30:47.838Z,22.50
2023-05-12T17:33:14.964Z,22.40
2023-05-12T17:35:41.591Z,22.30
2023-05-12T17:38:08.314Z,22.30
2023-05-12T17:40:34.975Z,22.40
2023-05-12T17:43:02.451Z,22.10
2023-05-12T17:45:29.345Z,22.00
2023-05-12T17:47:56.270Z,22.00
2023-05-12T17:50:22.985Z,21.90
2023-05-12T17:52:49.736Z,21.90
2023-05-12T17:55:16.779Z,21.80
2023-05-12T17:57:43.386Z,21.80
2023-05-12T18:00:12.280Z,21.80
2023-05-12T18:02:40.384Z,21.70
2023-05-12T18:05:08.441Z,21.60
2023-05-12T18:07:35.107Z,21.60
2023-05-12T18:10:01.996Z,21.50
2023-05-12T18:12:28.588Z,21.50
2023-05-12T18:14:56.042Z,21.40
2023-05-12T18:17:23.592Z,21.40
2023-05-12T18:19:50.359Z,21.40
2023-05-12T18:22:17.698Z,21.40
2023-05-12T18:24:44.623Z,21.30
2023-05-12T18:27:11.501Z,21.20
2023-05-12T18:29:38.466Z,21.20
2023-05-12T18:32:05.403Z,22.00
2023-05-12T18:34:32.677Z,21.20
2023-05-12T18:36:59.279Z,21.00
2023-05-12T18:39:26.141Z,20.90
2023-05-12T18:41:53.778Z,20.90
2023-05-12T18:44:20.386Z,20.80
2023-05-12T18:46:47.060Z,20.60
2023-05-12T18:49:13.691Z,20.70
2023-05-12T18:51:40.926Z,20.60
2023-05-12T18:54:07.509Z,20.60
2023-05-12T18:56:34.167Z,20.50
2023-05-12T18:59:00.882Z,20.40
2023-05-12T19:01:27.933Z,20.40
2023-05-12T19:03:54.728Z,20.30
2023-05-12T19:06:21.509Z,20.40
2023-05-12T19:08:48.783Z,20.20
2023-05-12T19:11:15.586Z,20.20
2023-05-12T19:13:44.498Z,20.20
2023-05-12T19:16:11.360Z,20.10
2023-05-12T19:18:38.016Z,20.10
2023-05-12T19:21:04.637Z,20.00
2023-05-12T19:23:31.291Z,19.80
2023-05-12T19:25:58.800Z,19.90
2023-05-12T19:28:25.863Z,19.80
2023-05-12T19:30:54.140Z,19.80
2023-05-12T19:33:20.957Z,19.70
2023-05-12T19:35:47.750Z,19.90
2023-05-12T19:38:14.502Z,19.60
2023-05-12T19:40:41.142Z,19.60
2023-05-12T19:43:09.930Z,19.50
2023-05-12T19:45:36.611Z,19.40
2023-05-12T19:48:03.389Z,19.30
2023-05-12T19:50:30.157Z,19.40
2023-05-12T19:52:56.785Z,19.40
2023-05-12T19:55:23.634Z,19.30
2023-05-12T19:57:51.197Z,19.30
2023-05-12T20:00:21.392Z,19.30
2023-05-12T20:02:48.336Z,20.70
2023-05-12T20:05:15.089Z,19.20
2023-05-12T20:07:42.329Z,19.20
2023-05-12T20:10:09.759Z,19.20
2023-05-12T20:12:37.247Z,19.10
2023-05-12T20:15:06.124Z,19.10
2023-05-12T20:17:33.445Z,19.00
2023-05-12T20:20:03.343Z,19.00
2023-05-12T20:22:30.080Z,19.00
2023-05-12T20:24:58.974Z,19.00
2023-05-12T20:27:25.653Z,19.00
2023-05-12T20:29:52.369Z,18.80
2023-05-12T20:32:19.113Z,18.70
2023-05-12T20:34:46.818Z,18.70
2023-05-12T20:37:14.327Z,18.70
2023-05-12T20:39:41.313Z,18.70
2023-05-12T20:42:09.432Z,18.50
2023-05-12T20:44:36.677Z,18.80
2023-05-12T20:47:03.505Z,18.70
2023-05-12T20:49:30.238Z,18.60
2023-05-12T20:51:57.607Z,18.70
2023-05-12T20:54:24.431Z,18.50
2023-05-12T20:56:51.087Z,18.50
2023-05-12T20:59:17.894Z,18.80
2023-05-12T21:01:44.743Z,18.50
2023-05-12T21:04:11.508Z,18.40
2023-05-12T21:06:38.272Z,18.30
2023-05-12T21:09:05.672Z,18.30
2023-05-12T21:11:32.397Z,18.40
2023-05-12T21:13:59.116Z,18.20
2023-05-12T21:16:25.921Z,18.40
2023-05-12T21:18:52.774Z,18.20
2023-05-12T21:21:19.442Z,18.20
2023-05-12T21:23:46.072Z,18.10
2023-05-12T21:26:13.438Z,18.20
2023-05-12T21:28:40.111Z,18.20
2023-05-12T21:31:06.907Z,18.20
2023-05-12T21:33:33.669Z,18.20
2023-05-12T21:36:00.344Z,18.10
2023-05-12T21:38:27.016Z,18.10
2023-05-12T21:40:55.566Z,18.00
2023-05-12T21:43:22.959Z,17.70
2023-05-12T21:45:49.741Z,17.90
2023-05-12T21:48:16.934Z,17.90
2023-05-12T21:50:43.659Z,18.10
2023-05-12T21:53:10.323Z,17.80
2023-05-12T21:55:37.010Z,17.80
2023-05-12T21:58:03.675Z,17.70
2023-05-12T22:00:31.071Z,17.70
2023-05-12T22:02:57.748Z,17.70
2023-05-12T22:05:24.509Z,17.70
2023-05-12T22:07:51.151Z,16.30
2023-05-12T22:10:18.046Z,17.50
2023-05-12T22:12:45.248Z,17.50
2023-05-12T22:15:12.108Z,17.60
2023-05-12T22:17:39.660Z,17.30
2023-05-12T22:20:08.458Z,17.40
2023-05-12T22:22:35.159Z,16.90
2023-05-12T22:25:03.011Z,17.30
2023-05-12T22:27:29.735Z,17.30
2023-05-12T22:29:56.445Z,17.20
2023-05-12T22:32:23.334Z,17.20
2023-05-12T22:34:53.074Z,17.20
2023-05-12T22:37:20.055Z,17.10
2023-05-12T22:39:46.804Z,17.10
2023-05-12T22:42:13.897Z,17.00
2023-05-12T22:44:40.563Z,16.80
2023-05-12T22:47:07.432Z,17.10
2023-05-12T22:49:34.151Z,17.00
2023-05-12T22:52:01.536Z,17.00
2023-05-12T22:54:28.212Z,17.00
2023-05-12T22:56:55.274Z,17.00
2023-05-12T22:59:21.941Z,16.90
2023-05-12T23:01:48.726Z,18.20
2023-05-12T23:04:15.514Z,16.80
2023-05-12T23:06:42.248Z,16.80
2023-05-12T23:09:09.565Z,16.80
2023-05-12T23:11:36.364Z,16.80
2023-05-12T23:14:03.025Z,16.80
2023-05-12T23:16:29.798Z,16.70
2023-05-12T23:18:56.509Z,16.70
2023-05-12T23:21:23.236Z,16.50
2023-05-12T23:23:49.938Z,16.60
2023-05-12T23:26:17.402Z,16.60
2023-05-12T23:28:45.212Z,16.60
2023-05-12T23:31:12.029Z,16.60
2023-05-12T23:33:38.761Z,16.60
2023-05-12T23:36:06.057Z,16.50
2023-05-12T23:38:32.695Z,16.40
2023-05-12T23:40:59.455Z,16.50
2023-05-12T23:43:27.317Z,16.50
2023-05-12T23:45:54.117Z,16.40
2023-05-12T23:48:20.874Z,16.40
2023-05-12T23:50:47.618Z,16.20
2023-05-12T23:53:14.236Z,16.40
2023-05-12T23:55:40.965Z,16.30
2023-05-12T23:58:09.965Z,16.20
